TFL1925 LEIB-EHAM
Flight info
| Callsign | TFL1925 |
|---|---|
| Flight time | 2h 5m |
| Altitude | 38000 |
| Route | EPAMA N856 EBROX Z26 LATRO DCT OLOXO DCT OKABI DCT TOU DCT ADABI DCT BOKNO UN858 VANAD UN874 BAMES UT191 PODEM DCT BAZOS DCT LUMIL DCT BELOB UY873 DENUT |
| Aircraft | B738/M-SDE2E3FGHIRWXY/LB1 |
Departure
| Time | 2026-05-05 20:30 |
|---|---|
| Airport | Ibiza Airport (LEIB) |
Arrival
| Time | 2026-05-05 22:36 |
|---|---|
| Airport | Amsterdam Airport Schiphol (EHAM) |
| Time | Latitude | Longitude | Altitude | Speed | Heading |
|---|---|---|---|---|---|
| 2026-05-05 20:13 | 38.87589 | 1.36994 | 7 ft | 0 kts | 332° |
| 2026-05-05 20:23 | 38.87592 | 1.36995 | 7 ft | 1 kts | 2° |
| 2026-05-05 20:24 | 38.87595 | 1.37007 | 8 ft | 3 kts | 80° |
| 2026-05-05 20:24 | 38.87568 | 1.37036 | 7 ft | 7 kts | 152° |
| 2026-05-05 20:24 | 38.87558 | 1.37091 | 7 ft | 7 kts | 74° |
| 2026-05-05 20:24 | 38.87579 | 1.37145 | 8 ft | 7 kts | 63° |
| 2026-05-05 20:25 | 38.87609 | 1.37217 | 7 ft | 11 kts | 61° |
| 2026-05-05 20:25 | 38.87654 | 1.37321 | 8 ft | 15 kts | 61° |
| 2026-05-05 20:25 | 38.87678 | 1.37378 | 9 ft | 6 kts | 62° |
| 2026-05-05 20:25 | 38.87698 | 1.37427 | 7 ft | 6 kts | 62° |
| 2026-05-05 20:26 | 38.87697 | 1.37478 | 7 ft | 6 kts | 123° |
| 2026-05-05 20:26 | 38.87641 | 1.37517 | 8 ft | 15 kts | 152° |
| 2026-05-05 20:26 | 38.87590 | 1.37602 | 8 ft | 13 kts | 69° |
| 2026-05-05 20:26 | 38.87632 | 1.37705 | 10 ft | 13 kts | 63° |
| 2026-05-05 20:27 | 38.87679 | 1.37816 | 10 ft | 15 kts | 58° |
| 2026-05-05 20:27 | 38.87733 | 1.37941 | 8 ft | 16 kts | 62° |
| 2026-05-05 20:27 | 38.87785 | 1.38067 | 9 ft | 16 kts | 63° |
| 2026-05-05 20:27 | 38.87834 | 1.38188 | 10 ft | 15 kts | 62° |
| 2026-05-05 20:28 | 38.87883 | 1.38304 | 9 ft | 14 kts | 62° |
| 2026-05-05 20:28 | 38.87929 | 1.38414 | 8 ft | 14 kts | 62° |
| 2026-05-05 20:28 | 38.87972 | 1.38520 | 8 ft | 13 kts | 62° |
| 2026-05-05 20:28 | 38.87994 | 1.38625 | 8 ft | 13 kts | 116° |
| 2026-05-05 20:29 | 38.87952 | 1.38668 | 9 ft | 0 kts | 150° |
| 2026-05-05 20:29 | 38.87915 | 1.38691 | 10 ft | 9 kts | 156° |
| 2026-05-05 20:29 | 38.87855 | 1.38684 | 12 ft | 9 kts | 219° |
| 2026-05-05 20:29 | 38.87791 | 1.38536 | 12 ft | 46 kts | 242° |
| 2026-05-05 20:30 | 38.87530 | 1.37906 | 11 ft | 112 kts | 242° |
| 2026-05-05 20:30 | 38.87079 | 1.36822 | 57 ft | 158 kts | 242° |
| 2026-05-05 20:30 | 38.86574 | 1.35581 | 760 ft | 155 kts | 242° |
| 2026-05-05 20:30 | 38.86073 | 1.34304 | 1338 ft | 165 kts | 242° |
| 2026-05-05 20:31 | 38.85545 | 1.32936 | 1800 ft | 178 kts | 243° |
| 2026-05-05 20:31 | 38.84951 | 1.31407 | 2051 ft | 199 kts | 241° |
| 2026-05-05 20:31 | 38.84320 | 1.29793 | 2516 ft | 205 kts | 241° |
| 2026-05-05 20:31 | 38.83689 | 1.28183 | 3149 ft | 204 kts | 241° |
| 2026-05-05 20:32 | 38.83266 | 1.26419 | 3538 ft | 218 kts | 271° |
| 2026-05-05 20:32 | 38.83831 | 1.24552 | 3820 ft | 238 kts | 305° |
| 2026-05-05 20:32 | 38.84944 | 1.22922 | 4281 ft | 247 kts | 315° |
| 2026-05-05 20:32 | 38.86325 | 1.21582 | 4878 ft | 249 kts | 323° |
| 2026-05-05 20:33 | 38.87793 | 1.20281 | 5304 ft | 263 kts | 323° |
| 2026-05-05 20:33 | 38.89296 | 1.18930 | 6033 ft | 265 kts | 323° |
| 2026-05-05 20:33 | 38.90795 | 1.17560 | 6823 ft | 265 kts | 323° |
| 2026-05-05 20:33 | 38.92390 | 1.16322 | 7447 ft | 274 kts | 339° |
| 2026-05-05 20:34 | 38.94300 | 1.16068 | 8152 ft | 282 kts | 3° |
| 2026-05-05 20:34 | 38.96252 | 1.16551 | 8883 ft | 288 kts | 11° |
| 2026-05-05 20:34 | 38.98220 | 1.17202 | 9572 ft | 295 kts | 12° |
| 2026-05-05 20:34 | 39.00216 | 1.17894 | 10216 ft | 302 kts | 11° |
| 2026-05-05 20:35 | 39.02299 | 1.18612 | 10416 ft | 325 kts | 11° |
| 2026-05-05 20:35 | 39.04554 | 1.19381 | 10719 ft | 343 kts | 11° |
| 2026-05-05 20:35 | 39.06891 | 1.20172 | 11279 ft | 351 kts | 11° |
| 2026-05-05 20:35 | 39.09275 | 1.20975 | 11968 ft | 356 kts | 11° |
| 2026-05-05 20:36 | 39.11681 | 1.21781 | 12679 ft | 361 kts | 10° |
| 2026-05-05 20:36 | 39.14126 | 1.22596 | 13467 ft | 364 kts | 10° |
| 2026-05-05 20:36 | 39.16588 | 1.23415 | 14135 ft | 369 kts | 9° |
| 2026-05-05 20:36 | 39.19103 | 1.24249 | 14759 ft | 375 kts | 9° |
| 2026-05-05 20:37 | 39.21657 | 1.25096 | 15405 ft | 381 kts | 9° |
| 2026-05-05 20:37 | 39.23368 | 1.25663 | 15847 ft | 385 kts | 9° |
| 2026-05-05 20:37 | 39.26866 | 1.26825 | 16715 ft | 392 kts | 9° |
| 2026-05-05 20:37 | 39.29529 | 1.27710 | 17355 ft | 398 kts | 9° |
| 2026-05-05 20:38 | 39.32228 | 1.28608 | 17988 ft | 403 kts | 9° |
| 2026-05-05 20:38 | 39.34965 | 1.29519 | 18592 ft | 408 kts | 8° |
| 2026-05-05 20:38 | 39.37728 | 1.30442 | 19253 ft | 410 kts | 8° |
| 2026-05-05 20:38 | 39.40497 | 1.31367 | 19879 ft | 412 kts | 8° |
| 2026-05-05 20:39 | 39.43287 | 1.32299 | 20462 ft | 416 kts | 8° |
| 2026-05-05 20:39 | 39.46102 | 1.33239 | 21032 ft | 420 kts | 8° |
| 2026-05-05 20:39 | 39.48911 | 1.34179 | 21594 ft | 423 kts | 8° |
| 2026-05-05 20:39 | 39.51773 | 1.35138 | 22157 ft | 427 kts | 8° |
| 2026-05-05 20:40 | 39.54658 | 1.36104 | 22720 ft | 430 kts | 8° |
| 2026-05-05 20:40 | 39.57603 | 1.37092 | 23306 ft | 433 kts | 8° |
| 2026-05-05 20:40 | 39.60518 | 1.37921 | 23641 ft | 433 kts | 358° |
| 2026-05-05 20:40 | 39.63474 | 1.37766 | 24055 ft | 422 kts | 345° |
| 2026-05-05 20:41 | 39.66393 | 1.37320 | 24603 ft | 423 kts | 345° |
| 2026-05-05 20:41 | 39.69322 | 1.36879 | 25064 ft | 425 kts | 345° |
| 2026-05-05 20:41 | 39.72273 | 1.36451 | 25489 ft | 428 kts | 345° |
| 2026-05-05 20:41 | 39.75248 | 1.36034 | 25916 ft | 432 kts | 345° |
| 2026-05-05 20:42 | 39.78251 | 1.35626 | 26344 ft | 434 kts | 345° |
| 2026-05-05 20:42 | 39.81259 | 1.35225 | 26809 ft | 436 kts | 345° |
| 2026-05-05 20:42 | 39.84288 | 1.34824 | 27228 ft | 439 kts | 345° |
| 2026-05-05 20:42 | 39.87343 | 1.34420 | 27618 ft | 442 kts | 345° |
| 2026-05-05 20:43 | 39.90403 | 1.34015 | 27995 ft | 444 kts | 345° |
| 2026-05-05 20:43 | 39.93489 | 1.33607 | 28375 ft | 447 kts | 345° |
| 2026-05-05 20:43 | 39.96599 | 1.33194 | 28752 ft | 449 kts | 345° |
| 2026-05-05 20:43 | 39.98668 | 1.32919 | 28989 ft | 451 kts | 345° |
| 2026-05-05 20:44 | 40.01800 | 1.32503 | 29346 ft | 454 kts | 345° |
| 2026-05-05 20:44 | 40.05988 | 1.31944 | 29768 ft | 459 kts | 345° |
| 2026-05-05 20:44 | 40.09176 | 1.31519 | 30070 ft | 462 kts | 345° |
| 2026-05-05 20:44 | 40.11333 | 1.31231 | 30262 ft | 463 kts | 345° |
| 2026-05-05 20:45 | 40.17775 | 1.30373 | 30840 ft | 467 kts | 345° |
| 2026-05-05 20:45 | 40.21014 | 1.29940 | 31094 ft | 469 kts | 345° |
| 2026-05-05 20:45 | 40.24231 | 1.29510 | 31345 ft | 471 kts | 345° |
| 2026-05-05 20:46 | 40.27501 | 1.29072 | 31712 ft | 471 kts | 345° |
| 2026-05-05 20:46 | 40.30751 | 1.28639 | 32084 ft | 470 kts | 345° |
| 2026-05-05 20:46 | 40.34001 | 1.28203 | 32443 ft | 469 kts | 345° |
| 2026-05-05 20:46 | 40.37258 | 1.27765 | 32752 ft | 470 kts | 345° |
| 2026-05-05 20:47 | 40.40517 | 1.27324 | 33044 ft | 470 kts | 345° |
| 2026-05-05 20:47 | 40.43771 | 1.26884 | 33379 ft | 470 kts | 345° |
| 2026-05-05 20:47 | 40.47029 | 1.26443 | 33752 ft | 469 kts | 345° |
| 2026-05-05 20:47 | 40.50225 | 1.26012 | 34145 ft | 466 kts | 345° |
| 2026-05-05 20:48 | 40.53446 | 1.25577 | 34483 ft | 464 kts | 345° |
| 2026-05-05 20:48 | 40.56670 | 1.25139 | 34731 ft | 465 kts | 345° |
| 2026-05-05 20:48 | 40.59887 | 1.24700 | 34965 ft | 465 kts | 345° |
| 2026-05-05 20:48 | 40.63104 | 1.24262 | 35238 ft | 464 kts | 345° |
| 2026-05-05 20:49 | 40.66313 | 1.23826 | 35534 ft | 463 kts | 346° |
| 2026-05-05 20:49 | 40.69536 | 1.23524 | 35807 ft | 469 kts | 352° |
| 2026-05-05 20:49 | 40.72826 | 1.23835 | 36048 ft | 478 kts | 2° |
| 2026-05-05 20:49 | 40.76097 | 1.24817 | 36301 ft | 484 kts | 8° |
| 2026-05-05 20:50 | 40.79347 | 1.26004 | 36592 ft | 483 kts | 9° |
| 2026-05-05 20:50 | 40.82577 | 1.27229 | 36855 ft | 483 kts | 9° |
| 2026-05-05 20:50 | 40.85808 | 1.28455 | 37116 ft | 481 kts | 9° |
| 2026-05-05 20:50 | 40.89027 | 1.29659 | 37406 ft | 479 kts | 9° |
| 2026-05-05 20:51 | 40.92200 | 1.30827 | 37705 ft | 478 kts | 9° |
| 2026-05-05 20:51 | 40.95406 | 1.31991 | 37836 ft | 480 kts | 9° |
| 2026-05-05 20:51 | 41.01904 | 1.34326 | 37843 ft | 485 kts | 9° |
| 2026-05-05 20:52 | 41.08403 | 1.36668 | 37830 ft | 482 kts | 9° |
| 2026-05-05 20:52 | 41.14827 | 1.38995 | 37848 ft | 478 kts | 9° |
| 2026-05-05 20:53 | 41.21243 | 1.41317 | 37850 ft | 478 kts | 9° |
| 2026-05-05 20:53 | 41.27664 | 1.43647 | 37834 ft | 479 kts | 9° |
| 2026-05-05 20:54 | 41.34062 | 1.45975 | 37884 ft | 479 kts | 9° |
| 2026-05-05 20:54 | 41.40512 | 1.48326 | 37849 ft | 481 kts | 9° |
| 2026-05-05 20:55 | 41.46981 | 1.50690 | 37839 ft | 482 kts | 9° |
| 2026-05-05 20:55 | 41.53447 | 1.53058 | 37813 ft | 482 kts | 9° |
| 2026-05-05 20:56 | 41.59926 | 1.55436 | 37839 ft | 483 kts | 10° |
| 2026-05-05 20:56 | 41.66426 | 1.57826 | 37841 ft | 484 kts | 10° |
| 2026-05-05 20:57 | 41.72890 | 1.60207 | 37835 ft | 485 kts | 10° |
| 2026-05-05 20:57 | 41.79481 | 1.61465 | 37860 ft | 472 kts | 353° |
| 2026-05-05 20:58 | 41.85946 | 1.60573 | 37860 ft | 466 kts | 346° |
| 2026-05-05 20:58 | 41.92377 | 1.59461 | 37874 ft | 465 kts | 346° |
| 2026-05-05 20:59 | 41.98775 | 1.58409 | 37898 ft | 466 kts | 347° |
| 2026-05-05 20:59 | 42.05215 | 1.57386 | 37879 ft | 466 kts | 347° |
| 2026-05-05 21:00 | 42.11671 | 1.56368 | 37860 ft | 466 kts | 347° |
| 2026-05-05 21:00 | 42.18100 | 1.55351 | 37849 ft | 464 kts | 347° |
| 2026-05-05 21:01 | 42.24508 | 1.54334 | 37856 ft | 463 kts | 347° |
| 2026-05-05 21:01 | 42.30913 | 1.53312 | 37849 ft | 463 kts | 347° |
| 2026-05-05 21:02 | 42.37270 | 1.52297 | 37878 ft | 463 kts | 347° |
| 2026-05-05 21:02 | 42.43708 | 1.51267 | 37860 ft | 464 kts | 348° |
| 2026-05-05 21:03 | 42.50073 | 1.50249 | 37867 ft | 464 kts | 348° |
| 2026-05-05 21:03 | 42.56477 | 1.49224 | 37874 ft | 462 kts | 348° |
| 2026-05-05 21:04 | 42.62862 | 1.48198 | 37887 ft | 463 kts | 348° |
| 2026-05-05 21:04 | 42.69259 | 1.47170 | 37899 ft | 462 kts | 348° |
| 2026-05-05 21:05 | 42.75653 | 1.46140 | 37882 ft | 463 kts | 348° |
| 2026-05-05 21:05 | 42.82039 | 1.45110 | 37903 ft | 462 kts | 348° |
| 2026-05-05 21:06 | 42.88432 | 1.44076 | 37906 ft | 462 kts | 348° |
| 2026-05-05 21:06 | 42.94816 | 1.43040 | 37889 ft | 462 kts | 348° |
| 2026-05-05 21:07 | 43.01170 | 1.42007 | 37916 ft | 462 kts | 348° |
| 2026-05-05 21:07 | 43.07569 | 1.40965 | 37903 ft | 463 kts | 348° |
| 2026-05-05 21:08 | 43.13996 | 1.39917 | 37897 ft | 464 kts | 348° |
| 2026-05-05 21:08 | 43.20399 | 1.38870 | 37889 ft | 464 kts | 348° |
| 2026-05-05 21:09 | 43.26807 | 1.37820 | 37888 ft | 464 kts | 348° |
| 2026-05-05 21:09 | 43.33193 | 1.36772 | 37886 ft | 464 kts | 348° |
| 2026-05-05 21:10 | 43.39613 | 1.35715 | 37890 ft | 464 kts | 348° |
| 2026-05-05 21:10 | 43.46040 | 1.34656 | 37892 ft | 465 kts | 349° |
| 2026-05-05 21:11 | 43.52462 | 1.33594 | 37880 ft | 465 kts | 349° |
| 2026-05-05 21:11 | 43.58844 | 1.32537 | 37878 ft | 464 kts | 349° |
| 2026-05-05 21:12 | 43.65259 | 1.31473 | 37903 ft | 464 kts | 349° |
| 2026-05-05 21:12 | 43.71656 | 1.30232 | 37891 ft | 462 kts | 346° |
| 2026-05-05 21:13 | 43.77971 | 1.28583 | 37890 ft | 461 kts | 345° |
| 2026-05-05 21:13 | 43.84279 | 1.26873 | 37893 ft | 461 kts | 345° |
| 2026-05-05 21:14 | 43.90592 | 1.25201 | 37877 ft | 462 kts | 345° |
| 2026-05-05 21:14 | 43.96867 | 1.23567 | 37867 ft | 462 kts | 346° |
| 2026-05-05 21:15 | 44.03190 | 1.21926 | 37880 ft | 461 kts | 346° |
| 2026-05-05 21:15 | 44.09501 | 1.20284 | 37870 ft | 461 kts | 346° |
| 2026-05-05 21:16 | 44.15812 | 1.18638 | 37872 ft | 461 kts | 346° |
| 2026-05-05 21:16 | 44.22136 | 1.16984 | 37876 ft | 461 kts | 346° |
| 2026-05-05 21:17 | 44.28441 | 1.15331 | 37860 ft | 461 kts | 346° |
| 2026-05-05 21:17 | 44.34750 | 1.13674 | 37870 ft | 461 kts | 346° |
| 2026-05-05 21:18 | 44.41024 | 1.12022 | 37858 ft | 461 kts | 346° |
| 2026-05-05 21:18 | 44.47328 | 1.10359 | 37857 ft | 461 kts | 346° |
| 2026-05-05 21:19 | 44.53629 | 1.08693 | 37855 ft | 460 kts | 346° |
| 2026-05-05 21:19 | 44.59929 | 1.07023 | 37855 ft | 460 kts | 346° |
| 2026-05-05 21:20 | 44.66218 | 1.05353 | 37861 ft | 460 kts | 347° |
| 2026-05-05 21:20 | 44.72510 | 1.03678 | 37852 ft | 459 kts | 347° |
| 2026-05-05 21:21 | 44.78751 | 1.02013 | 37856 ft | 459 kts | 347° |
| 2026-05-05 21:21 | 44.85024 | 1.00336 | 37848 ft | 459 kts | 347° |
| 2026-05-05 21:22 | 44.91300 | 0.98654 | 37851 ft | 458 kts | 347° |
| 2026-05-05 21:22 | 44.97563 | 0.96972 | 37850 ft | 458 kts | 347° |
| 2026-05-05 21:23 | 45.03819 | 0.95288 | 37855 ft | 458 kts | 347° |
| 2026-05-05 21:23 | 45.10088 | 0.93597 | 37864 ft | 458 kts | 347° |
| 2026-05-05 21:24 | 45.16349 | 0.91904 | 37868 ft | 458 kts | 347° |
| 2026-05-05 21:24 | 45.22578 | 0.90216 | 37868 ft | 458 kts | 347° |
| 2026-05-05 21:25 | 45.28843 | 0.88515 | 37870 ft | 458 kts | 347° |
| 2026-05-05 21:25 | 45.35113 | 0.86808 | 37868 ft | 459 kts | 347° |
| 2026-05-05 21:26 | 45.41382 | 0.85098 | 37848 ft | 459 kts | 347° |
| 2026-05-05 21:26 | 45.47672 | 0.83378 | 37855 ft | 460 kts | 347° |
| 2026-05-05 21:27 | 45.53962 | 0.81655 | 37833 ft | 460 kts | 347° |
| 2026-05-05 21:27 | 45.60273 | 0.79921 | 37845 ft | 461 kts | 347° |
| 2026-05-05 21:28 | 45.66588 | 0.78183 | 37842 ft | 462 kts | 347° |
| 2026-05-05 21:28 | 45.72860 | 0.76452 | 37835 ft | 462 kts | 347° |
| 2026-05-05 21:29 | 45.79182 | 0.74704 | 37836 ft | 462 kts | 347° |
| 2026-05-05 21:29 | 45.85498 | 0.72953 | 37826 ft | 461 kts | 347° |
| 2026-05-05 21:30 | 45.91807 | 0.71200 | 37828 ft | 461 kts | 347° |
| 2026-05-05 21:30 | 45.98108 | 0.69445 | 37835 ft | 460 kts | 347° |
| 2026-05-05 21:31 | 46.04351 | 0.67703 | 37826 ft | 460 kts | 347° |
| 2026-05-05 21:31 | 46.10634 | 0.65945 | 37815 ft | 459 kts | 347° |
| 2026-05-05 21:32 | 46.16902 | 0.64187 | 37813 ft | 458 kts | 348° |
| 2026-05-05 21:32 | 46.22104 | 0.62725 | 37807 ft | 458 kts | 348° |
| 2026-05-05 21:33 | 46.28355 | 0.60965 | 37804 ft | 457 kts | 347° |
| 2026-05-05 21:33 | 46.34594 | 0.59204 | 37796 ft | 457 kts | 347° |
| 2026-05-05 21:34 | 46.40838 | 0.57437 | 37793 ft | 456 kts | 348° |
| 2026-05-05 21:34 | 46.47079 | 0.55667 | 37789 ft | 456 kts | 348° |
| 2026-05-05 21:35 | 46.53283 | 0.53941 | 37785 ft | 457 kts | 351° |
| 2026-05-05 21:35 | 46.59635 | 0.54086 | 37780 ft | 459 kts | 11° |
| 2026-05-05 21:36 | 46.65860 | 0.56150 | 37786 ft | 459 kts | 13° |
| 2026-05-05 21:36 | 46.72085 | 0.58323 | 37788 ft | 460 kts | 12° |
| 2026-05-05 21:37 | 46.78330 | 0.60430 | 37790 ft | 460 kts | 12° |
| 2026-05-05 21:37 | 46.84540 | 0.62488 | 37781 ft | 461 kts | 12° |
| 2026-05-05 21:38 | 46.90801 | 0.64563 | 37786 ft | 461 kts | 12° |
| 2026-05-05 21:38 | 46.97087 | 0.66656 | 37792 ft | 462 kts | 12° |
| 2026-05-05 21:39 | 47.03357 | 0.68749 | 37787 ft | 462 kts | 12° |
| 2026-05-05 21:39 | 47.09720 | 0.69962 | 37793 ft | 461 kts | 3° |
| 2026-05-05 21:40 | 47.16097 | 0.70489 | 37782 ft | 461 kts | 2° |
| 2026-05-05 21:40 | 47.22504 | 0.71060 | 37790 ft | 461 kts | 3° |
| 2026-05-05 21:41 | 47.28911 | 0.71715 | 37780 ft | 461 kts | 3° |
| 2026-05-05 21:41 | 47.35292 | 0.72391 | 37783 ft | 460 kts | 3° |
| 2026-05-05 21:42 | 47.41676 | 0.73065 | 37781 ft | 459 kts | 4° |
| 2026-05-05 21:42 | 47.48043 | 0.73748 | 37791 ft | 459 kts | 5° |
| 2026-05-05 21:43 | 47.54240 | 0.75951 | 37799 ft | 458 kts | 18° |
| 2026-05-05 21:43 | 47.60233 | 0.79023 | 37794 ft | 458 kts | 19° |
| 2026-05-05 21:44 | 47.66275 | 0.82081 | 37790 ft | 459 kts | 18° |
| 2026-05-05 21:44 | 47.72335 | 0.85080 | 37775 ft | 459 kts | 18° |
| 2026-05-05 21:45 | 47.78399 | 0.88071 | 37789 ft | 459 kts | 18° |
| 2026-05-05 21:45 | 47.84466 | 0.91079 | 37783 ft | 459 kts | 18° |
| 2026-05-05 21:46 | 47.90531 | 0.94133 | 37789 ft | 460 kts | 18° |
| 2026-05-05 21:46 | 47.96564 | 0.97194 | 37787 ft | 460 kts | 18° |
| 2026-05-05 21:47 | 48.02625 | 1.00272 | 37785 ft | 461 kts | 18° |
| 2026-05-05 21:47 | 48.08707 | 1.03366 | 37789 ft | 461 kts | 18° |
| 2026-05-05 21:48 | 48.14795 | 1.06471 | 37791 ft | 462 kts | 18° |
| 2026-05-05 21:48 | 48.20874 | 1.09577 | 37785 ft | 462 kts | 18° |
| 2026-05-05 21:49 | 48.26971 | 1.12688 | 37788 ft | 464 kts | 18° |
| 2026-05-05 21:49 | 48.33090 | 1.15804 | 37796 ft | 464 kts | 18° |
| 2026-05-05 21:50 | 48.39214 | 1.18934 | 37792 ft | 464 kts | 18° |
| 2026-05-05 21:50 | 48.45318 | 1.22065 | 37787 ft | 462 kts | 19° |
| 2026-05-05 21:51 | 48.51361 | 1.25172 | 37790 ft | 461 kts | 19° |
| 2026-05-05 21:51 | 48.57426 | 1.28286 | 37789 ft | 460 kts | 18° |
| 2026-05-05 21:52 | 48.66526 | 1.32862 | 37793 ft | 459 kts | 18° |
| 2026-05-05 21:53 | 48.72580 | 1.35914 | 37794 ft | 459 kts | 18° |
| 2026-05-05 21:53 | 48.78608 | 1.38969 | 37796 ft | 459 kts | 18° |
| 2026-05-05 21:54 | 48.84662 | 1.42047 | 37784 ft | 459 kts | 18° |
| 2026-05-05 21:54 | 48.90737 | 1.45143 | 37791 ft | 460 kts | 18° |
| 2026-05-05 21:55 | 48.96826 | 1.48238 | 37784 ft | 461 kts | 17° |
| 2026-05-05 21:55 | 49.03116 | 1.50119 | 37789 ft | 461 kts | 7° |
| 2026-05-05 21:56 | 49.09472 | 1.51436 | 37803 ft | 461 kts | 7° |
| 2026-05-05 21:56 | 49.15816 | 1.52871 | 37787 ft | 459 kts | 8° |
| 2026-05-05 21:57 | 49.22080 | 1.54389 | 37785 ft | 458 kts | 12° |
| 2026-05-05 21:57 | 49.25105 | 1.55876 | 37791 ft | 457 kts | 25° |
| 2026-05-05 21:57 | 49.27888 | 1.58223 | 37796 ft | 456 kts | 34° |
| 2026-05-05 21:58 | 49.32649 | 1.64617 | 37802 ft | 455 kts | 45° |
| 2026-05-05 21:58 | 49.37194 | 1.71428 | 37789 ft | 457 kts | 44° |
| 2026-05-05 21:59 | 49.41752 | 1.78162 | 37793 ft | 457 kts | 44° |
| 2026-05-05 21:59 | 49.46355 | 1.84919 | 37797 ft | 458 kts | 44° |
| 2026-05-05 22:00 | 49.50975 | 1.91715 | 37770 ft | 459 kts | 44° |
| 2026-05-05 22:00 | 49.55980 | 1.97871 | 37767 ft | 461 kts | 36° |
| 2026-05-05 22:01 | 49.61180 | 2.03590 | 37766 ft | 463 kts | 36° |
| 2026-05-05 22:01 | 49.66444 | 2.09421 | 37770 ft | 463 kts | 36° |
| 2026-05-05 22:02 | 49.71619 | 2.15263 | 37778 ft | 463 kts | 37° |
| 2026-05-05 22:02 | 49.76803 | 2.21171 | 37785 ft | 462 kts | 37° |
| 2026-05-05 22:03 | 49.81974 | 2.27088 | 37778 ft | 461 kts | 37° |
| 2026-05-05 22:03 | 49.87130 | 2.32999 | 37791 ft | 460 kts | 37° |
| 2026-05-05 22:04 | 49.92274 | 2.38911 | 37779 ft | 459 kts | 37° |
| 2026-05-05 22:04 | 49.97402 | 2.44818 | 37784 ft | 459 kts | 37° |
| 2026-05-05 22:05 | 50.02540 | 2.50755 | 37789 ft | 461 kts | 37° |
| 2026-05-05 22:05 | 50.05121 | 2.53743 | 37455 ft | 467 kts | 37° |
| 2026-05-05 22:05 | 50.07688 | 2.56720 | 37066 ft | 464 kts | 38° |
| 2026-05-05 22:05 | 50.10257 | 2.59701 | 36751 ft | 457 kts | 38° |
| 2026-05-05 22:06 | 50.12788 | 2.62642 | 36441 ft | 451 kts | 38° |
| 2026-05-05 22:06 | 50.15296 | 2.65562 | 36130 ft | 449 kts | 38° |
| 2026-05-05 22:06 | 50.17791 | 2.68470 | 35827 ft | 446 kts | 38° |
| 2026-05-05 22:06 | 50.20274 | 2.71368 | 35523 ft | 445 kts | 38° |
| 2026-05-05 22:07 | 50.22748 | 2.74261 | 35227 ft | 444 kts | 39° |
| 2026-05-05 22:07 | 50.25221 | 2.77156 | 34938 ft | 444 kts | 39° |
| 2026-05-05 22:07 | 50.27692 | 2.80052 | 34658 ft | 444 kts | 39° |
| 2026-05-05 22:07 | 50.30170 | 2.82961 | 34381 ft | 444 kts | 39° |
| 2026-05-05 22:08 | 50.32638 | 2.85861 | 34104 ft | 445 kts | 39° |
| 2026-05-05 22:08 | 50.35114 | 2.88775 | 33810 ft | 445 kts | 39° |
| 2026-05-05 22:08 | 50.37588 | 2.91688 | 33477 ft | 445 kts | 39° |
| 2026-05-05 22:08 | 50.40057 | 2.94601 | 33140 ft | 445 kts | 39° |
| 2026-05-05 22:09 | 50.42533 | 2.97431 | 32815 ft | 447 kts | 35° |
| 2026-05-05 22:09 | 50.45224 | 2.99896 | 32499 ft | 449 kts | 31° |
| 2026-05-05 22:09 | 50.47988 | 3.02185 | 32184 ft | 450 kts | 30° |
| 2026-05-05 22:09 | 50.50806 | 3.04466 | 31867 ft | 451 kts | 29° |
| 2026-05-05 22:10 | 50.53598 | 3.06745 | 31549 ft | 451 kts | 30° |
| 2026-05-05 22:10 | 50.56373 | 3.09048 | 31248 ft | 452 kts | 30° |
| 2026-05-05 22:10 | 50.59147 | 3.11384 | 30946 ft | 452 kts | 30° |
| 2026-05-05 22:10 | 50.61886 | 3.13710 | 30644 ft | 453 kts | 31° |
| 2026-05-05 22:11 | 50.64663 | 3.16077 | 30356 ft | 454 kts | 31° |
| 2026-05-05 22:11 | 50.67447 | 3.18452 | 30055 ft | 455 kts | 31° |
| 2026-05-05 22:11 | 50.70244 | 3.20838 | 29728 ft | 456 kts | 31° |
| 2026-05-05 22:11 | 50.73039 | 3.23208 | 29392 ft | 457 kts | 30° |
| 2026-05-05 22:12 | 50.75851 | 3.25557 | 29048 ft | 458 kts | 30° |
| 2026-05-05 22:12 | 50.78664 | 3.27895 | 28714 ft | 458 kts | 30° |
| 2026-05-05 22:12 | 50.81489 | 3.30243 | 28385 ft | 459 kts | 30° |
| 2026-05-05 22:12 | 50.84318 | 3.32600 | 28053 ft | 459 kts | 30° |
| 2026-05-05 22:13 | 50.87150 | 3.34967 | 27734 ft | 461 kts | 30° |
| 2026-05-05 22:13 | 50.89950 | 3.37313 | 27420 ft | 462 kts | 30° |
| 2026-05-05 22:13 | 50.92794 | 3.39701 | 27105 ft | 464 kts | 30° |
| 2026-05-05 22:13 | 50.95649 | 3.42104 | 26791 ft | 465 kts | 30° |
| 2026-05-05 22:14 | 50.98511 | 3.44515 | 26489 ft | 465 kts | 30° |
| 2026-05-05 22:14 | 51.01370 | 3.46927 | 26192 ft | 466 kts | 30° |
| 2026-05-05 22:14 | 51.04241 | 3.49353 | 25949 ft | 466 kts | 30° |
| 2026-05-05 22:14 | 51.07111 | 3.51781 | 25587 ft | 467 kts | 30° |
| 2026-05-05 22:15 | 51.09979 | 3.54210 | 25289 ft | 466 kts | 30° |
| 2026-05-05 22:15 | 51.12840 | 3.56637 | 24997 ft | 465 kts | 30° |
| 2026-05-05 22:15 | 51.15696 | 3.59065 | 24691 ft | 463 kts | 30° |
| 2026-05-05 22:15 | 51.18533 | 3.61478 | 24413 ft | 461 kts | 29° |
| 2026-05-05 22:16 | 51.21318 | 3.63844 | 24132 ft | 458 kts | 28° |
| 2026-05-05 22:16 | 51.24278 | 3.65617 | 23780 ft | 455 kts | 12° |
| 2026-05-05 22:16 | 51.27383 | 3.65923 | 23450 ft | 443 kts | 359° |
| 2026-05-05 22:16 | 51.30431 | 3.65777 | 23033 ft | 433 kts | 359° |
| 2026-05-05 22:17 | 51.33407 | 3.65612 | 22615 ft | 423 kts | 358° |
| 2026-05-05 22:17 | 51.36320 | 3.65463 | 22199 ft | 414 kts | 359° |
| 2026-05-05 22:17 | 51.39144 | 3.65338 | 21785 ft | 397 kts | 359° |
| 2026-05-05 22:17 | 51.41856 | 3.65235 | 21383 ft | 382 kts | 359° |
| 2026-05-05 22:18 | 51.44467 | 3.65147 | 20976 ft | 369 kts | 360° |
| 2026-05-05 22:18 | 51.46995 | 3.65066 | 20588 ft | 358 kts | 360° |
| 2026-05-05 22:18 | 51.49452 | 3.64990 | 20222 ft | 348 kts | 360° |
| 2026-05-05 22:18 | 51.51861 | 3.64914 | 19843 ft | 342 kts | 360° |
| 2026-05-05 22:19 | 51.54195 | 3.64841 | 19487 ft | 336 kts | 360° |
| 2026-05-05 22:19 | 51.56542 | 3.64768 | 19125 ft | 331 kts | 0° |
| 2026-05-05 22:19 | 51.58801 | 3.64698 | 18769 ft | 326 kts | 0° |
| 2026-05-05 22:19 | 51.61048 | 3.64627 | 18413 ft | 321 kts | 360° |
| 2026-05-05 22:20 | 51.63284 | 3.64555 | 18041 ft | 322 kts | 0° |
| 2026-05-05 22:20 | 51.65530 | 3.64485 | 17644 ft | 324 kts | 0° |
| 2026-05-05 22:20 | 51.67783 | 3.64414 | 17256 ft | 323 kts | 0° |
| 2026-05-05 22:20 | 51.70023 | 3.64484 | 16839 ft | 319 kts | 12° |
| 2026-05-05 22:21 | 51.72053 | 3.65773 | 16441 ft | 313 kts | 35° |
| 2026-05-05 22:21 | 51.73619 | 3.68123 | 16078 ft | 307 kts | 54° |
| 2026-05-05 22:21 | 51.74818 | 3.70991 | 15714 ft | 309 kts | 58° |
| 2026-05-05 22:21 | 51.75580 | 3.72939 | 15468 ft | 311 kts | 58° |
| 2026-05-05 22:22 | 51.76725 | 3.75909 | 15090 ft | 313 kts | 58° |
| 2026-05-05 22:22 | 51.77873 | 3.78887 | 14725 ft | 312 kts | 58° |
| 2026-05-05 22:22 | 51.79400 | 3.82828 | 14243 ft | 311 kts | 57° |
| 2026-05-05 22:22 | 51.80174 | 3.84815 | 13994 ft | 309 kts | 57° |
| 2026-05-05 22:23 | 51.81317 | 3.87740 | 13623 ft | 305 kts | 57° |
| 2026-05-05 22:23 | 51.82428 | 3.90583 | 13220 ft | 301 kts | 57° |
| 2026-05-05 22:23 | 51.83540 | 3.93426 | 12822 ft | 297 kts | 57° |
| 2026-05-05 22:23 | 51.84642 | 3.96241 | 12439 ft | 294 kts | 57° |
| 2026-05-05 22:24 | 51.85729 | 3.99022 | 12049 ft | 291 kts | 57° |
| 2026-05-05 22:24 | 51.86805 | 4.01777 | 11663 ft | 289 kts | 57° |
| 2026-05-05 22:24 | 51.87876 | 4.04522 | 11289 ft | 286 kts | 57° |
| 2026-05-05 22:24 | 51.88938 | 4.07243 | 10919 ft | 285 kts | 57° |
| 2026-05-05 22:25 | 51.89991 | 4.09949 | 10545 ft | 284 kts | 57° |
| 2026-05-05 22:25 | 51.91044 | 4.12655 | 10190 ft | 285 kts | 57° |
| 2026-05-05 22:25 | 51.92077 | 4.15402 | 9831 ft | 287 kts | 59° |
| 2026-05-05 22:25 | 51.93064 | 4.18161 | 9448 ft | 287 kts | 59° |
| 2026-05-05 22:26 | 51.94045 | 4.20936 | 9056 ft | 287 kts | 60° |
| 2026-05-05 22:26 | 51.95035 | 4.23741 | 8677 ft | 287 kts | 59° |
| 2026-05-05 22:26 | 51.96029 | 4.26553 | 8278 ft | 287 kts | 59° |
| 2026-05-05 22:26 | 51.97019 | 4.29350 | 7902 ft | 286 kts | 59° |
| 2026-05-05 22:27 | 51.98010 | 4.32151 | 7525 ft | 285 kts | 59° |
| 2026-05-05 22:27 | 51.98996 | 4.34937 | 7147 ft | 285 kts | 59° |
| 2026-05-05 22:27 | 51.99979 | 4.37716 | 6783 ft | 283 kts | 59° |
| 2026-05-05 22:27 | 52.00958 | 4.40486 | 6423 ft | 282 kts | 59° |
| 2026-05-05 22:28 | 52.01930 | 4.43238 | 6049 ft | 281 kts | 59° |
| 2026-05-05 22:28 | 52.02898 | 4.45979 | 5651 ft | 279 kts | 59° |
| 2026-05-05 22:28 | 52.03862 | 4.48712 | 5255 ft | 278 kts | 59° |
| 2026-05-05 22:28 | 52.04821 | 4.51435 | 4875 ft | 277 kts | 59° |
| 2026-05-05 22:29 | 52.05761 | 4.54108 | 4480 ft | 275 kts | 59° |
| 2026-05-05 22:29 | 52.06721 | 4.56837 | 4091 ft | 274 kts | 59° |
| 2026-05-05 22:29 | 52.07650 | 4.59485 | 3707 ft | 265 kts | 59° |
| 2026-05-05 22:29 | 52.08530 | 4.61997 | 3464 ft | 252 kts | 59° |
| 2026-05-05 22:30 | 52.09375 | 4.64408 | 3209 ft | 240 kts | 59° |
| 2026-05-05 22:30 | 52.10185 | 4.66718 | 2947 ft | 230 kts | 59° |
| 2026-05-05 22:30 | 52.10960 | 4.68936 | 2700 ft | 221 kts | 59° |
| 2026-05-05 22:30 | 52.11706 | 4.71072 | 2450 ft | 213 kts | 58° |
| 2026-05-05 22:31 | 52.12427 | 4.73137 | 2198 ft | 206 kts | 58° |
| 2026-05-05 22:31 | 52.13147 | 4.75083 | 2040 ft | 194 kts | 49° |
| 2026-05-05 22:31 | 52.14233 | 4.76198 | 2035 ft | 186 kts | 20° |
| 2026-05-05 22:31 | 52.15525 | 4.76547 | 2017 ft | 187 kts | 5° |
| 2026-05-05 22:32 | 52.16779 | 4.76631 | 1987 ft | 172 kts | 6° |
| 2026-05-05 22:32 | 52.17935 | 4.76707 | 1995 ft | 162 kts | 7° |
| 2026-05-05 22:32 | 52.19056 | 4.76802 | 1977 ft | 162 kts | 6° |
| 2026-05-05 22:32 | 52.20203 | 4.76908 | 1796 ft | 166 kts | 6° |
| 2026-05-05 22:33 | 52.21321 | 4.77010 | 1565 ft | 156 kts | 7° |
| 2026-05-05 22:33 | 52.22352 | 4.77106 | 1348 ft | 145 kts | 6° |
| 2026-05-05 22:33 | 52.23323 | 4.77196 | 1169 ft | 133 kts | 6° |
| 2026-05-05 22:33 | 52.24264 | 4.77285 | 975 ft | 137 kts | 6° |
| 2026-05-05 22:34 | 52.25182 | 4.77369 | 786 ft | 131 kts | 6° |
| 2026-05-05 22:34 | 52.26092 | 4.77457 | 616 ft | 133 kts | 4° |
| 2026-05-05 22:34 | 52.27012 | 4.77538 | 448 ft | 135 kts | 3° |
| 2026-05-05 22:34 | 52.27947 | 4.77624 | 269 ft | 137 kts | 3° |
| 2026-05-05 22:35 | 52.28888 | 4.77712 | 98 ft | 133 kts | 5° |
| 2026-05-05 22:35 | 52.29794 | 4.77796 | -3 ft | 123 kts | 5° |
| 2026-05-05 22:35 | 52.30495 | 4.77860 | -1 ft | 72 kts | 4° |
| 2026-05-05 22:35 | 52.30946 | 4.77902 | -5 ft | 62 kts | 3° |
| 2026-05-05 22:36 | 52.31141 | 4.77920 | -4 ft | 1 kts | 4° |
| 2026-05-05 22:36 | 52.31254 | 4.77932 | -2 ft | 22 kts | 4° |
| 2026-05-05 22:36 | 52.31333 | 4.77891 | -2 ft | 12 kts | 298° |
| 2026-05-05 22:36 | 52.31301 | 4.77776 | -2 ft | 12 kts | 230° |
| 2026-05-05 22:37 | 52.31278 | 4.77651 | -2 ft | 12 kts | 273° |
| 2026-05-05 22:37 | 52.31264 | 4.77528 | -2 ft | 11 kts | 225° |
| 2026-05-05 22:37 | 52.31191 | 4.77499 | -2 ft | 11 kts | 182° |
| 2026-05-05 22:37 | 52.31116 | 4.77493 | -2 ft | 11 kts | 188° |
| 2026-05-05 22:38 | 52.31071 | 4.77413 | -2 ft | 10 kts | 264° |
| 2026-05-05 22:38 | 52.31074 | 4.77294 | -2 ft | 10 kts | 277° |
| 2026-05-05 22:38 | 52.31079 | 4.77178 | -2 ft | 10 kts | 272° |
| 2026-05-05 22:38 | 52.31081 | 4.77066 | -2 ft | 10 kts | 273° |
| 2026-05-05 22:39 | 52.31085 | 4.76964 | -2 ft | 8 kts | 274° |
| 2026-05-05 22:39 | 52.31075 | 4.76879 | -2 ft | 8 kts | 244° |
| 2026-05-05 22:39 | 52.31036 | 4.76819 | -2 ft | 8 kts | 214° |
| 2026-05-05 22:39 | 52.30983 | 4.76817 | -2 ft | 8 kts | 160° |
| 2026-05-05 22:40 | 52.30943 | 4.76867 | -2 ft | 6 kts | 138° |
| 2026-05-05 22:40 | 52.30933 | 4.76881 | -2 ft | 1 kts | 137° |
| 2026-05-05 22:40 | 52.30928 | 4.76889 | -2 ft | 0 kts | 137° |